createdAt,value
2022-09-12T00:00:15.939Z,0
2022-09-12T00:02:17.398Z,0
2022-09-12T00:06:22.797Z,1.404
2022-09-12T00:08:22.179Z,0.28
2022-09-12T00:10:23.620Z,0
2022-09-12T00:12:24.601Z,0
2022-09-12T00:16:27.452Z,0
2022-09-12T00:18:29.280Z,0.561
2022-09-12T00:20:31.231Z,0.561
2022-09-12T00:26:36.320Z,0
2022-09-12T00:28:37.823Z,0
2022-09-12T00:30:39.334Z,0
2022-09-12T00:32:40.915Z,0
2022-09-12T00:34:42.798Z,0
2022-09-12T00:36:43.813Z,0.561
2022-09-12T00:38:45.344Z,0
2022-09-12T00:40:47.018Z,0
2022-09-12T00:42:48.240Z,0
2022-09-12T00:44:50.036Z,0
2022-09-12T00:46:51.370Z,0
2022-09-12T00:48:52.947Z,0
2022-09-12T00:50:54.001Z,0
2022-09-12T00:52:55.368Z,0
2022-09-12T00:54:56.731Z,0
2022-09-12T00:56:58.328Z,0
2022-09-12T00:58:59.730Z,0
2022-09-12T01:01:01.368Z,0
2022-09-12T01:03:03.157Z,0
2022-09-12T01:05:04.423Z,0
2022-09-12T01:07:06.324Z,0
2022-09-12T01:09:07.888Z,0
2022-09-12T01:11:09.821Z,0
2022-09-12T01:13:11.701Z,0
2022-09-12T01:15:13.550Z,0
2022-09-12T01:19:16.007Z,0
2022-09-12T01:21:17.401Z,0
2022-09-12T01:23:19.354Z,0
2022-09-12T01:25:20.765Z,0
2022-09-12T01:27:22.639Z,0
2022-09-12T01:29:24.344Z,0
2022-09-12T01:31:26.193Z,0
2022-09-12T01:33:27.885Z,0
2022-09-12T01:35:29.335Z,0
2022-09-12T01:37:31.207Z,0
2022-09-12T01:39:32.292Z,0
2022-09-12T01:41:33.723Z,0
2022-09-12T01:43:34.734Z,0
2022-09-12T01:45:35.841Z,0
2022-09-12T01:47:37.398Z,0
2022-09-12T01:49:39.224Z,0
2022-09-12T01:51:40.633Z,0
2022-09-12T01:53:41.625Z,0
2022-09-12T01:55:43.387Z,0
2022-09-12T01:57:44.328Z,0
2022-09-12T01:59:46.069Z,0
2022-09-12T02:01:47.632Z,0
2022-09-12T02:03:48.723Z,0
2022-09-12T02:05:50.160Z,0
2022-09-12T02:07:51.796Z,0
2022-09-12T02:09:53.031Z,0
2022-09-12T02:11:54.318Z,0
2022-09-12T02:13:55.901Z,0
2022-09-12T02:15:57.394Z,0
2022-09-12T02:17:58.927Z,0
2022-09-12T02:20:00.365Z,0
2022-09-12T02:22:02.085Z,0
2022-09-12T02:24:03.358Z,0
2022-09-12T02:26:04.860Z,0
2022-09-12T02:28:05.898Z,0
2022-09-12T02:30:07.809Z,0
2022-09-12T02:32:09.457Z,0
2022-09-12T02:34:10.883Z,0
2022-09-12T02:36:12.554Z,0
2022-09-12T02:38:14.077Z,0
2022-09-12T02:40:15.597Z,0
2022-09-12T02:42:17.016Z,0
2022-09-12T02:44:18.101Z,0
2022-09-12T02:46:19.815Z,0
2022-09-12T02:48:21.314Z,0
2022-09-12T02:50:23.012Z,0
2022-09-12T02:52:24.928Z,0
2022-09-12T02:54:26.429Z,0
2022-09-12T02:56:27.810Z,0
2022-09-12T02:58:28.889Z,0
2022-09-12T03:00:30.344Z,0
2022-09-12T03:02:31.864Z,0
2022-09-12T03:04:32.996Z,0
2022-09-12T03:06:34.911Z,0
2022-09-12T03:08:36.782Z,0
2022-09-12T03:10:38.726Z,0
2022-09-12T03:12:40.011Z,0
2022-09-12T03:14:41.908Z,0
2022-09-12T03:16:43.115Z,0
2022-09-12T03:18:44.355Z,0
2022-09-12T03:20:45.751Z,0
2022-09-12T03:22:50.533Z,0
2022-09-12T03:24:48.726Z,0
2022-09-12T03:26:50.279Z,0
2022-09-12T03:28:51.541Z,0
2022-09-12T03:30:53.301Z,0
2022-09-12T03:32:54.883Z,0
2022-09-12T03:34:56.441Z,0
2022-09-12T03:36:57.677Z,0
2022-09-12T03:41:00.390Z,0
2022-09-12T03:43:01.846Z,0
2022-09-12T03:45:03.347Z,0
2022-09-12T03:47:06.956Z,0
2022-09-12T03:49:05.827Z,0
2022-09-12T03:51:07.340Z,0
2022-09-12T03:53:08.936Z,0
2022-09-12T03:55:10.706Z,0
2022-09-12T03:57:11.871Z,0
2022-09-12T03:59:13.409Z,0
2022-09-12T04:01:15.180Z,0
2022-09-12T04:03:17.038Z,0
2022-09-12T04:05:18.830Z,0
2022-09-12T04:07:20.631Z,0
2022-09-12T04:09:21.626Z,0
2022-09-12T04:11:23.020Z,0
2022-09-12T04:13:24.485Z,0
2022-09-12T04:15:25.476Z,0
2022-09-12T04:17:26.667Z,0
2022-09-12T04:19:27.713Z,0
2022-09-12T04:21:28.698Z,0
2022-09-12T04:23:29.817Z,0
2022-09-12T04:25:31.717Z,0
2022-09-12T04:27:33.376Z,0
2022-09-12T04:29:34.700Z,0
2022-09-12T04:31:36.239Z,0
2022-09-12T04:33:37.634Z,0
2022-09-12T04:35:39.166Z,0
2022-09-12T04:37:40.512Z,0
2022-09-12T04:39:41.558Z,0
2022-09-12T04:41:43.362Z,0
2022-09-12T04:43:44.981Z,0
2022-09-12T04:45:46.887Z,0
2022-09-12T04:47:48.623Z,0
2022-09-12T04:49:50.572Z,0
2022-09-12T04:53:52.866Z,0
2022-09-12T04:55:54.626Z,0
2022-09-12T04:57:56.210Z,0
2022-09-12T04:59:57.447Z,0
2022-09-12T05:04:00.779Z,0
2022-09-12T05:06:02.228Z,0
2022-09-12T05:08:04.190Z,0
2022-09-12T05:10:05.087Z,0
2022-09-12T05:12:06.670Z,0
2022-09-12T05:14:07.978Z,0
2022-09-12T05:16:09.698Z,0
2022-09-12T05:18:11.409Z,0
2022-09-12T05:20:13.311Z,0
2022-09-12T05:22:14.760Z,0
2022-09-12T05:24:16.029Z,0
2022-09-12T05:26:17.640Z,0
2022-09-12T05:28:19.148Z,0
2022-09-12T05:30:20.308Z,0
2022-09-12T05:32:21.978Z,0
2022-09-12T05:36:24.620Z,0
2022-09-12T05:38:25.976Z,0
2022-09-12T05:40:27.513Z,0
2022-09-12T05:42:29.439Z,0
2022-09-12T05:44:30.440Z,0
2022-09-12T05:46:32.246Z,0
2022-09-12T05:48:33.703Z,0
2022-09-12T05:50:35.550Z,0
2022-09-12T05:52:37.204Z,0
2022-09-12T05:54:39.035Z,0
2022-09-12T05:56:40.284Z,0
2022-09-12T05:58:42.043Z,0
2022-09-12T06:00:43.881Z,0
2022-09-12T06:02:45.202Z,0
2022-09-12T06:04:46.722Z,0
2022-09-12T06:06:48.107Z,0
2022-09-12T06:08:49.257Z,0
2022-09-12T06:10:50.325Z,0
2022-09-12T06:12:51.276Z,0.14
2022-09-12T06:14:52.431Z,0
2022-09-12T06:16:54.349Z,0
2022-09-12T06:18:56.099Z,0
2022-09-12T06:20:57.072Z,0
2022-09-12T06:22:58.680Z,0
2022-09-12T06:25:00.570Z,0
2022-09-12T06:27:02.268Z,0
2022-09-12T06:29:03.904Z,0
2022-09-12T06:31:05.835Z,0.14
2022-09-12T06:33:07.528Z,0
2022-09-12T06:35:08.801Z,0
2022-09-12T06:37:09.791Z,0
2022-09-12T06:39:11.088Z,0
2022-09-12T06:41:12.595Z,0.28
2022-09-12T06:43:57.449Z,0
2022-09-12T06:45:59.117Z,0
2022-09-12T06:48:00.603Z,0
2022-09-12T06:50:01.770Z,0
2022-09-12T06:52:02.707Z,0
2022-09-12T06:54:04.201Z,0
2022-09-12T06:56:05.443Z,0
2022-09-12T06:58:07.242Z,0
2022-09-12T07:00:08.752Z,0.14
2022-09-12T07:02:10.017Z,0
2022-09-12T07:04:11.688Z,0
2022-09-12T07:06:13.002Z,0.702
2022-09-12T07:08:14.677Z,0.421
2022-09-12T07:10:19.052Z,0.28
2022-09-12T07:12:17.431Z,0.982
2022-09-12T07:14:19.011Z,2.246
2022-09-12T07:16:20.299Z,0.14
2022-09-12T07:18:21.269Z,1.825
2022-09-12T07:22:24.032Z,0.702
2022-09-12T07:24:25.004Z,0
2022-09-12T07:26:26.583Z,0
2022-09-12T07:28:27.671Z,0
2022-09-12T07:30:28.705Z,0
2022-09-12T07:32:30.033Z,0.28
2022-09-12T07:34:31.166Z,0
2022-09-12T07:36:32.577Z,0
2022-09-12T07:38:34.121Z,1.684
2022-09-12T07:40:35.509Z,0
2022-09-12T07:42:36.819Z,0.421
2022-09-12T07:44:38.009Z,0.421
2022-09-12T07:46:39.856Z,0.28
2022-09-12T07:48:41.449Z,0
2022-09-12T07:50:45.106Z,0
2022-09-12T07:54:46.649Z,0
2022-09-12T07:56:48.239Z,0
2022-09-12T07:58:49.521Z,0
2022-09-12T08:00:51.167Z,0
2022-09-12T08:02:52.216Z,0.421
2022-09-12T08:04:53.571Z,1.123
2022-09-12T08:06:54.778Z,1.263
2022-09-12T08:08:56.253Z,0.421
2022-09-12T08:10:57.246Z,0
2022-09-12T08:12:58.381Z,0
2022-09-12T08:14:59.567Z,1.404
2022-09-12T08:17:00.700Z,0.561
2022-09-12T08:19:02.196Z,0
2022-09-12T08:21:03.189Z,1.404
2022-09-12T08:23:04.265Z,0.702
2022-09-12T08:25:05.917Z,0
2022-09-12T08:27:07.204Z,0
2022-09-12T08:29:08.763Z,0
2022-09-12T08:31:09.854Z,0
2022-09-12T08:35:12.172Z,1.263
2022-09-12T08:37:13.926Z,0.14
2022-09-12T08:39:14.783Z,0.842
2022-09-12T08:41:16.078Z,2.667
2022-09-12T08:43:17.758Z,3.229
2022-09-12T08:45:19.457Z,2.386
2022-09-12T08:47:20.494Z,2.667
2022-09-12T08:49:21.875Z,0.561
2022-09-12T08:51:23.454Z,1.404
2022-09-12T08:53:24.781Z,0
2022-09-12T08:55:26.521Z,0.842
2022-09-12T08:57:27.536Z,2.667
2022-09-12T08:59:29.137Z,0
2022-09-12T09:01:30.617Z,2.667
2022-09-12T09:03:31.648Z,0
2022-09-12T09:05:32.570Z,1.684
2022-09-12T09:07:33.555Z,1.825
2022-09-12T09:09:34.877Z,0.982
2022-09-12T09:11:36.437Z,2.948
2022-09-12T09:13:38.079Z,0.842
2022-09-12T09:15:40.362Z,1.263
2022-09-12T09:17:42.044Z,1.544
2022-09-12T09:19:44.283Z,3.51
2022-09-12T09:21:44.682Z,1.404
2022-09-12T09:23:46.333Z,1.965
2022-09-12T09:25:47.408Z,1.684
2022-09-12T09:27:48.393Z,2.246
2022-09-12T09:29:49.180Z,0.561
2022-09-12T09:31:50.008Z,0.421
2022-09-12T09:33:51.196Z,0.14
2022-09-12T09:35:52.545Z,0.842
2022-09-12T09:37:58.070Z,0.14
2022-09-12T09:39:54.851Z,3.088
2022-09-12T09:41:56.186Z,4.492
2022-09-12T09:45:58.939Z,2.948
2022-09-12T09:48:00.289Z,1.684
2022-09-12T09:50:01.605Z,2.808
2022-09-12T09:52:02.756Z,1.544
2022-09-12T09:54:04.250Z,2.808
2022-09-12T09:56:05.065Z,0.421
2022-09-12T09:58:06.763Z,3.931
2022-09-12T10:00:08.282Z,0
2022-09-12T10:02:09.105Z,1.123
2022-09-12T10:04:10.407Z,0.982
2022-09-12T10:06:11.814Z,0
2022-09-12T10:08:13.237Z,3.51
2022-09-12T10:10:14.649Z,0.842
2022-09-12T10:12:15.794Z,1.263
2022-09-12T10:14:17.140Z,0.421
2022-09-12T10:16:18.947Z,0.28
2022-09-12T10:18:20.232Z,0.561
2022-09-12T10:20:22.123Z,0.702
2022-09-12T10:22:22.728Z,1.404
2022-09-12T10:24:23.603Z,1.684
2022-09-12T10:28:26.251Z,3.931
2022-09-12T10:30:27.954Z,3.65
2022-09-12T10:32:30.936Z,3.088
2022-09-12T10:34:30.716Z,5.194
2022-09-12T10:38:32.520Z,6.037
2022-09-12T10:40:34.162Z,2.527
2022-09-12T10:42:35.777Z,1.965
2022-09-12T10:44:37.884Z,4.352
2022-09-12T10:46:39.466Z,3.369
2022-09-12T10:48:41.107Z,3.931
2022-09-12T10:50:42.623Z,4.212
2022-09-12T10:52:44.378Z,0.982
2022-09-12T10:54:46.126Z,0.421
2022-09-12T10:56:47.098Z,1.544
2022-09-12T10:58:47.892Z,5.756
2022-09-12T11:00:48.871Z,5.896
2022-09-12T11:02:49.729Z,3.088
2022-09-12T11:06:52.191Z,2.808
2022-09-12T11:08:53.352Z,2.246
2022-09-12T11:10:54.206Z,1.404
2022-09-12T11:12:55.730Z,0.14
2022-09-12T11:14:57.462Z,5.475
2022-09-12T11:16:58.508Z,1.965
2022-09-12T11:18:59.491Z,9.266
2022-09-12T11:23:02.871Z,1.684
2022-09-12T11:25:04.583Z,0.842
2022-09-12T11:27:05.466Z,4.773
2022-09-12T11:29:06.547Z,3.229
2022-09-12T11:31:08.212Z,3.088
2022-09-12T11:33:09.405Z,2.948
2022-09-12T11:35:13.962Z,0.421
2022-09-12T11:37:15.134Z,4.212
2022-09-12T11:39:13.977Z,4.633
2022-09-12T11:41:15.315Z,5.756
2022-09-12T11:43:16.144Z,7.3
2022-09-12T11:45:17.508Z,5.194
2022-09-12T11:47:18.675Z,2.808
2022-09-12T11:49:19.896Z,3.51
2022-09-12T11:51:20.691Z,0.28
2022-09-12T11:53:22.452Z,0.982
2022-09-12T11:55:23.563Z,2.808
2022-09-12T11:59:25.465Z,5.475
2022-09-12T12:01:27.009Z,6.879
2022-09-12T12:03:28.410Z,4.352
2022-09-12T12:05:29.765Z,4.914
2022-09-12T12:09:31.802Z,0.28
2022-09-12T12:11:33.144Z,4.633
2022-09-12T12:13:34.694Z,2.667
2022-09-12T12:15:35.738Z,0.28
2022-09-12T12:17:37.361Z,3.369
2022-09-12T12:19:38.577Z,2.667
2022-09-12T12:21:39.827Z,5.335
2022-09-12T12:23:41.331Z,3.931
2022-09-12T12:25:42.507Z,1.404
2022-09-12T12:27:43.997Z,3.088
2022-09-12T12:29:44.805Z,4.914
2022-09-12T12:31:46.341Z,1.684
2022-09-12T12:33:47.841Z,1.263
2022-09-12T12:35:48.890Z,5.054
2022-09-12T12:37:50.284Z,7.441
2022-09-12T12:39:51.436Z,2.386
2022-09-12T12:41:53.091Z,4.773
2022-09-12T12:43:54.241Z,0.421
2022-09-12T12:45:55.954Z,7.581
2022-09-12T12:47:57.281Z,6.318
2022-09-12T12:49:58.455Z,4.492
2022-09-12T12:51:59.536Z,0.842
2022-09-12T12:54:01.169Z,2.527
2022-09-12T12:56:02.616Z,0.421
2022-09-12T12:58:03.472Z,5.616
2022-09-12T13:00:04.347Z,7.441
2022-09-12T13:02:05.670Z,8.002
2022-09-12T13:04:07.364Z,4.071
2022-09-12T13:06:08.706Z,0.982
2022-09-12T13:08:09.608Z,4.212
2022-09-12T13:10:10.434Z,1.404
2022-09-12T13:12:11.539Z,3.931
2022-09-12T13:14:12.549Z,1.684
2022-09-12T13:16:13.438Z,3.51
2022-09-12T13:18:14.632Z,4.914
2022-09-12T13:20:27.045Z,5.475
2022-09-12T13:22:17.287Z,4.212
2022-09-12T13:24:18.656Z,3.369
2022-09-12T13:26:19.636Z,8.283
2022-09-12T13:28:21.081Z,3.369
2022-09-12T13:29:04.771Z,2.808
2022-09-12T13:35:08.722Z,4.352
2022-09-12T13:37:09.795Z,3.229
2022-09-12T13:39:11.025Z,0.14
2022-09-12T13:41:11.997Z,2.246
2022-09-12T13:45:15.123Z,4.773
2022-09-12T13:49:17.526Z,2.106
2022-09-12T13:51:19.085Z,4.071
2022-09-12T13:53:20.516Z,6.318
2022-09-12T13:55:21.895Z,2.667
2022-09-12T13:57:23.138Z,3.65
2022-09-12T13:59:24.506Z,3.65
2022-09-12T14:01:25.735Z,4.352
2022-09-12T14:03:26.699Z,6.458
2022-09-12T14:05:27.765Z,3.51
2022-09-12T14:07:28.872Z,2.246
2022-09-12T14:09:30.498Z,0.982
2022-09-12T14:11:32.090Z,4.633
2022-09-12T14:13:33.141Z,5.475
2022-09-12T14:15:34.700Z,5.054
2022-09-12T14:17:35.979Z,1.825
2022-09-12T14:19:36.785Z,2.386
2022-09-12T14:21:37.983Z,2.527
2022-09-12T14:23:38.986Z,6.739
2022-09-12T14:25:40.465Z,4.352
2022-09-12T14:27:41.892Z,0
2022-09-12T14:33:45.367Z,0
2022-09-12T14:35:46.960Z,0
2022-09-12T14:37:48.251Z,0.28
2022-09-12T14:39:49.997Z,0.702
2022-09-12T14:43:52.941Z,1.263
2022-09-12T14:45:53.943Z,4.352
2022-09-12T14:49:56.714Z,0.982
2022-09-12T14:51:57.581Z,4.212
2022-09-12T14:56:00.128Z,4.492
2022-09-12T14:58:01.184Z,5.194
2022-09-12T15:00:02.949Z,4.633
2022-09-12T15:02:04.225Z,3.65
2022-09-12T15:04:05.701Z,4.492
2022-09-12T15:06:07.177Z,2.527
2022-09-12T15:08:08.117Z,2.246
2022-09-12T15:10:08.865Z,3.79
2022-09-12T15:12:10.613Z,1.684
2022-09-12T15:16:13.732Z,3.369
2022-09-12T15:18:14.520Z,4.352
2022-09-12T15:20:15.591Z,1.404
2022-09-12T15:22:16.523Z,3.369
2022-09-12T15:24:17.307Z,0.14
2022-09-12T15:26:18.763Z,0.14
2022-09-12T15:28:20.443Z,2.246
2022-09-12T15:30:21.219Z,1.684
2022-09-12T15:32:22.473Z,3.79
2022-09-12T15:34:23.711Z,1.825
2022-09-12T15:36:25.434Z,0.421
2022-09-12T15:38:26.991Z,2.667
2022-09-12T15:40:28.154Z,2.667
2022-09-12T15:42:29.199Z,0.421
2022-09-12T15:44:30.426Z,1.404
2022-09-12T15:46:32.112Z,5.756
2022-09-12T15:48:33.343Z,3.931
2022-09-12T15:50:34.946Z,0.842
2022-09-12T15:52:36.398Z,0
2022-09-12T15:54:37.137Z,4.212
2022-09-12T15:56:38.284Z,2.948
2022-09-12T15:58:49.972Z,1.965
2022-09-12T16:00:40.637Z,4.071
2022-09-12T16:02:41.641Z,3.229
2022-09-12T16:04:43.229Z,3.51
2022-09-12T16:06:44.314Z,4.914
2022-09-12T16:08:45.495Z,2.246
2022-09-12T16:10:47.087Z,3.79
2022-09-12T16:14:49.018Z,0.421
2022-09-12T16:16:50.661Z,2.246
2022-09-12T16:18:51.928Z,4.492
2022-09-12T16:20:52.926Z,1.825
2022-09-12T16:24:55.746Z,3.369
2022-09-12T16:27:00.511Z,3.65
2022-09-12T16:28:58.595Z,2.948
2022-09-12T16:30:59.863Z,4.212
2022-09-12T16:33:01.558Z,2.106
2022-09-12T16:37:04.084Z,4.352
2022-09-12T16:39:05.663Z,4.914
2022-09-12T16:41:06.686Z,5.335
2022-09-12T16:43:07.809Z,3.088
2022-09-12T16:47:10.021Z,5.756
2022-09-12T16:49:10.905Z,4.352
2022-09-12T16:51:11.926Z,2.667
2022-09-12T16:53:13.144Z,4.773
2022-09-12T16:55:14.926Z,3.369
2022-09-12T16:57:15.982Z,2.667
2022-09-12T16:59:17.779Z,4.071
2022-09-12T17:01:19.533Z,1.123
2022-09-12T17:03:21.234Z,2.246
2022-09-12T17:05:22.104Z,1.825
2022-09-12T17:07:23.551Z,2.948
2022-09-12T17:09:24.945Z,3.369
2022-09-12T17:11:25.877Z,3.088
2022-09-12T17:13:36.634Z,1.404
2022-09-12T17:15:28.155Z,2.667
2022-09-12T17:17:29.724Z,3.229
2022-09-12T17:19:30.783Z,0.982
2022-09-12T17:21:31.776Z,0.842
2022-09-12T17:23:33.255Z,0.702
2022-09-12T17:25:35.087Z,0
2022-09-12T17:27:36.795Z,1.544
2022-09-12T17:29:37.892Z,0
2022-09-12T17:31:39.093Z,0
2022-09-12T17:33:40.751Z,0
2022-09-12T17:35:41.718Z,0
2022-09-12T17:37:42.749Z,0
2022-09-12T17:39:44.215Z,0
2022-09-12T17:41:45.909Z,0
2022-09-12T17:43:47.660Z,0.982
2022-09-12T17:45:48.713Z,1.544
2022-09-12T17:47:50.201Z,2.667
2022-09-12T17:49:51.533Z,1.965
2022-09-12T17:51:52.897Z,3.369
2022-09-12T17:55:55.180Z,3.369
2022-09-12T17:57:56.189Z,3.79
2022-09-12T17:59:57.166Z,3.369
2022-09-12T18:01:58.890Z,2.386
2022-09-12T18:06:01.410Z,1.825
2022-09-12T18:08:02.981Z,2.246
2022-09-12T18:10:04.491Z,2.527
2022-09-12T18:12:06.342Z,3.79
2022-09-12T18:14:09.626Z,2.527
2022-09-12T18:18:10.501Z,2.106
2022-09-12T18:20:11.682Z,2.527
2022-09-12T18:22:13.024Z,2.246
2022-09-12T18:24:13.896Z,3.931
2022-09-12T18:28:16.126Z,4.071
2022-09-12T18:30:21.374Z,2.386
2022-09-12T18:32:18.707Z,3.931
2022-09-12T18:34:19.609Z,2.106
2022-09-12T18:38:22.646Z,1.965
2022-09-12T18:40:23.822Z,1.404
2022-09-12T18:42:24.843Z,2.527
2022-09-12T18:44:26.631Z,3.229
2022-09-12T18:48:28.654Z,1.684
2022-09-12T18:50:30.037Z,2.527
2022-09-12T18:52:31.260Z,1.965
2022-09-12T18:54:32.301Z,1.263
2022-09-12T18:56:34.133Z,0.842
2022-09-12T18:58:35.645Z,0.28
2022-09-12T19:00:36.769Z,1.263
2022-09-12T19:02:37.708Z,0.842
2022-09-12T19:04:39.066Z,0.14
2022-09-12T19:06:40.640Z,2.106
2022-09-12T19:08:42.389Z,1.404
2022-09-12T19:10:43.620Z,0.561
2022-09-12T19:12:44.624Z,0.982
2022-09-12T19:14:45.981Z,0.842
2022-09-12T19:16:47.573Z,0.421
2022-09-12T19:18:48.439Z,1.825
2022-09-12T19:20:50.240Z,0.561
2022-09-12T19:22:51.700Z,1.825
2022-09-12T19:24:52.647Z,0.14
2022-09-12T19:26:54.386Z,1.965
2022-09-12T19:28:55.325Z,0
2022-09-12T19:30:57.002Z,0.14
2022-09-12T19:32:58.192Z,0.842
2022-09-12T19:37:00.820Z,0
2022-09-12T19:39:01.858Z,0.982
2022-09-12T19:41:03.444Z,1.263
2022-09-12T19:43:04.583Z,0.14
2022-09-12T19:47:07.232Z,0
2022-09-12T19:49:08.955Z,0
2022-09-12T19:51:10.168Z,0
2022-09-12T19:53:11.853Z,0
2022-09-12T19:55:13.079Z,0
2022-09-12T19:57:14.261Z,0
2022-09-12T19:59:15.499Z,0
2022-09-12T20:01:16.867Z,0
2022-09-12T20:03:18.258Z,0
2022-09-12T20:05:19.592Z,0
2022-09-12T20:07:21.264Z,0
2022-09-12T20:09:22.671Z,0
2022-09-12T20:11:24.447Z,0
2022-09-12T20:13:26.077Z,0
2022-09-12T20:14:09.911Z,0
2022-09-12T20:16:11.789Z,0
2022-09-12T20:18:12.693Z,0
2022-09-12T20:20:14.178Z,0
2022-09-12T20:22:15.550Z,0
2022-09-12T20:24:16.973Z,0
2022-09-12T20:26:17.920Z,0
2022-09-12T20:28:18.877Z,0
2022-09-12T20:30:20.318Z,0
2022-09-12T20:32:22.046Z,0
2022-09-12T20:34:23.863Z,0
2022-09-12T20:36:24.971Z,0
2022-09-12T20:38:26.115Z,0
2022-09-12T20:40:27.000Z,0
2022-09-12T20:44:29.436Z,0
2022-09-12T20:46:30.575Z,0
2022-09-12T20:48:32.275Z,0
2022-09-12T20:50:33.656Z,0
2022-09-12T20:54:36.374Z,0
2022-09-12T20:56:37.714Z,0
2022-09-12T20:58:43.137Z,0
2022-09-12T21:00:40.601Z,0
2022-09-12T21:02:42.166Z,0
2022-09-12T21:04:43.058Z,0
2022-09-12T21:06:44.283Z,0
2022-09-12T21:08:45.375Z,0
2022-09-12T21:10:46.930Z,0
2022-09-12T21:12:48.348Z,0
2022-09-12T21:14:49.819Z,0
2022-09-12T21:16:50.882Z,0
2022-09-12T21:18:52.221Z,0
2022-09-12T21:20:53.328Z,0
2022-09-12T21:22:54.771Z,0
2022-09-12T21:24:56.156Z,0
2022-09-12T21:27:01.009Z,0
2022-09-12T21:28:59.174Z,0
2022-09-12T21:31:00.770Z,0
2022-09-12T21:33:02.412Z,0
2022-09-12T21:35:03.554Z,0
2022-09-12T21:37:04.830Z,0
2022-09-12T21:39:06.335Z,0
2022-09-12T21:41:07.305Z,0
2022-09-12T21:43:12.474Z,0
2022-09-12T21:45:09.321Z,0
2022-09-12T21:47:10.922Z,0
2022-09-12T21:49:12.191Z,0
2022-09-12T21:51:13.928Z,0
2022-09-12T21:53:14.871Z,0
2022-09-12T21:55:16.391Z,0
2022-09-12T21:57:18.244Z,0
2022-09-12T21:59:19.426Z,0
2022-09-12T22:01:20.935Z,0
2022-09-12T22:03:22.283Z,0
2022-09-12T22:05:23.248Z,0
2022-09-12T22:07:24.543Z,0
2022-09-12T22:09:26.240Z,0
2022-09-12T22:11:27.716Z,0
2022-09-12T22:13:28.861Z,0
2022-09-12T22:15:39.845Z,0
2022-09-12T22:17:31.853Z,0
2022-09-12T22:19:32.788Z,0
2022-09-12T22:21:34.212Z,0
2022-09-12T22:25:37.132Z,0
2022-09-12T22:27:38.123Z,0
2022-09-12T22:29:39.451Z,0
2022-09-12T22:31:41.249Z,0
2022-09-12T22:35:44.157Z,0
2022-09-12T22:37:45.402Z,0
2022-09-12T22:39:46.567Z,0
2022-09-12T22:41:48.350Z,0
2022-09-12T22:43:49.504Z,0
2022-09-12T22:45:50.496Z,0
2022-09-12T22:47:52.046Z,0
2022-09-12T22:49:53.735Z,0
2022-09-12T22:51:54.853Z,0
2022-09-12T22:53:56.030Z,0
2022-09-12T22:57:59.488Z,0
2022-09-12T23:00:00.897Z,0
2022-09-12T23:02:02.627Z,0
2022-09-12T23:06:05.687Z,0
2022-09-12T23:08:06.926Z,0
2022-09-12T23:10:08.741Z,0
2022-09-12T23:12:09.731Z,0
2022-09-12T23:14:11.347Z,0
2022-09-12T23:16:12.607Z,0
2022-09-12T23:18:13.693Z,0
2022-09-12T23:20:15.288Z,0
2022-09-12T23:22:16.766Z,0
2022-09-12T23:24:18.460Z,0
2022-09-12T23:26:20.091Z,0
2022-09-12T23:28:21.956Z,0
2022-09-12T23:30:23.066Z,0
2022-09-12T23:32:24.616Z,0
2022-09-12T23:34:26.479Z,0
2022-09-12T23:36:28.119Z,0
2022-09-12T23:38:29.686Z,0
2022-09-12T23:40:31.368Z,0
2022-09-12T23:42:32.997Z,0
2022-09-12T23:44:34.829Z,0
2022-09-12T23:46:36.591Z,0
2022-09-12T23:50:39.936Z,0
2022-09-12T23:52:41.803Z,0
2022-09-12T23:54:43.342Z,0
2022-09-12T23:56:45.017Z,0
